<?xml version="1.0" encoding="UTF-8" standalone="no" ?>
<gpx xmlns="http://www.topografix.com/GPX/1/1" xmlns:xsi="http://www.w3.org/2001/XMLSchema-instance" xsi:schemaLocation="http://www.topografix.com/GPX/1/1 http://www.topografix.com/GPX/1/1/gpx.xsd" version="1.1" creator="VisuGPX - https://www.visugpx.com">
  <metadata>
    <name>entre mirande et cromois</name>
    <desc><![CDATA[ce parcours est détaillé dans le topoguide
 
Le Grand DIJON....à pied]]></desc>
  </metadata>
  <trk>
    <name><![CDATA[04-SEPT-15 13:56:07]]></name>
    <trkseg>
      <trkpt lat="47.31858" lon="5.09858">
        <ele>242.39</ele>
        <time>2015-09-03T14:24:58Z</time>
      </trkpt>
      <trkpt lat="47.31863" lon="5.09852">
        <ele>240.47</ele>
        <time>2015-09-03T14:25:28Z</time>
      </trkpt>
      <trkpt lat="47.31863" lon="5.0985">
        <ele>241.43</ele>
        <time>2015-09-03T14:25:59Z</time>
      </trkpt>
      <trkpt lat="47.31863" lon="5.09849">
        <ele>239.99</ele>
        <time>2015-09-03T14:26:25Z</time>
      </trkpt>
      <trkpt lat="47.31859" lon="5.09815">
        <ele>235.18</ele>
        <time>2015-09-03T14:26:43Z</time>
      </trkpt>
      <trkpt lat="47.31857" lon="5.09788">
        <ele>230.85</ele>
        <time>2015-09-03T14:26:59Z</time>
      </trkpt>
      <trkpt lat="47.31856" lon="5.09786">
        <ele>230.37</ele>
        <time>2015-09-03T14:27:01Z</time>
      </trkpt>
      <trkpt lat="47.31853" lon="5.09783">
        <ele>229.41</ele>
        <time>2015-09-03T14:27:05Z</time>
      </trkpt>
      <trkpt lat="47.31846" lon="5.09782">
        <ele>227.01</ele>
        <time>2015-09-03T14:27:12Z</time>
      </trkpt>
      <trkpt lat="47.31833" lon="5.09786">
        <ele>226.53</ele>
        <time>2015-09-03T14:27:25Z</time>
      </trkpt>
      <trkpt lat="47.31817" lon="5.09795">
        <ele>225.57</ele>
        <time>2015-09-03T14:27:40Z</time>
      </trkpt>
      <trkpt lat="47.31789" lon="5.09812">
        <ele>227.49</ele>
        <time>2015-09-03T14:28:00Z</time>
      </trkpt>
      <trkpt lat="47.31766" lon="5.09821">
        <ele>227.49</ele>
        <time>2015-09-03T14:28:17Z</time>
      </trkpt>
      <trkpt lat="47.31744" lon="5.09833">
        <ele>226.05</ele>
        <time>2015-09-03T14:28:36Z</time>
      </trkpt>
      <trkpt lat="47.3172" lon="5.09847">
        <ele>226.53</ele>
        <time>2015-09-03T14:28:54Z</time>
      </trkpt>
      <trkpt lat="47.317" lon="5.09857">
        <ele>226.05</ele>
        <time>2015-09-03T14:29:12Z</time>
      </trkpt>
      <trkpt lat="47.3168" lon="5.09867">
        <ele>226.05</ele>
        <time>2015-09-03T14:29:28Z</time>
      </trkpt>
      <trkpt lat="47.31671" lon="5.09871">
        <ele>225.57</ele>
        <time>2015-09-03T14:29:36Z</time>
      </trkpt>
      <trkpt lat="47.31654" lon="5.0988">
        <ele>224.12</ele>
        <time>2015-09-03T14:29:51Z</time>
      </trkpt>
      <trkpt lat="47.31632" lon="5.09891">
        <ele>222.2</ele>
        <time>2015-09-03T14:30:08Z</time>
      </trkpt>
      <trkpt lat="47.31611" lon="5.09903">
        <ele>224.61</ele>
        <time>2015-09-03T14:30:23Z</time>
      </trkpt>
      <trkpt lat="47.3159" lon="5.09915">
        <ele>224.12</ele>
        <time>2015-09-03T14:30:39Z</time>
      </trkpt>
      <trkpt lat="47.31571" lon="5.09926">
        <ele>225.57</ele>
        <time>2015-09-03T14:30:54Z</time>
      </trkpt>
      <trkpt lat="47.31551" lon="5.09935">
        <ele>225.09</ele>
        <time>2015-09-03T14:31:09Z</time>
      </trkpt>
      <trkpt lat="47.31533" lon="5.09942">
        <ele>222.2</ele>
        <time>2015-09-03T14:31:24Z</time>
      </trkpt>
      <trkpt lat="47.31512" lon="5.09958">
        <ele>221.24</ele>
        <time>2015-09-03T14:31:41Z</time>
      </trkpt>
      <trkpt lat="47.31502" lon="5.09962">
        <ele>221.24</ele>
        <time>2015-09-03T14:31:49Z</time>
      </trkpt>
      <trkpt lat="47.31481" lon="5.09974">
        <ele>224.61</ele>
        <time>2015-09-03T14:32:04Z</time>
      </trkpt>
      <trkpt lat="47.3146" lon="5.09984">
        <ele>223.64</ele>
        <time>2015-09-03T14:32:21Z</time>
      </trkpt>
      <trkpt lat="47.31434" lon="5.09989">
        <ele>222.2</ele>
        <time>2015-09-03T14:32:41Z</time>
      </trkpt>
      <trkpt lat="47.31409" lon="5.09985">
        <ele>223.64</ele>
        <time>2015-09-03T14:32:59Z</time>
      </trkpt>
      <trkpt lat="47.31381" lon="5.09978">
        <ele>224.61</ele>
        <time>2015-09-03T14:33:20Z</time>
      </trkpt>
      <trkpt lat="47.31358" lon="5.0997">
        <ele>225.57</ele>
        <time>2015-09-03T14:33:37Z</time>
      </trkpt>
      <trkpt lat="47.31332" lon="5.09964">
        <ele>224.61</ele>
        <time>2015-09-03T14:33:58Z</time>
      </trkpt>
      <trkpt lat="47.31326" lon="5.09967">
        <ele>224.61</ele>
        <time>2015-09-03T14:34:06Z</time>
      </trkpt>
      <trkpt lat="47.31324" lon="5.09978">
        <ele>226.53</ele>
        <time>2015-09-03T14:34:16Z</time>
      </trkpt>
      <trkpt lat="47.31318" lon="5.10004">
        <ele>227.49</ele>
        <time>2015-09-03T14:34:32Z</time>
      </trkpt>
      <trkpt lat="47.31312" lon="5.1004">
        <ele>229.89</ele>
        <time>2015-09-03T14:34:51Z</time>
      </trkpt>
      <trkpt lat="47.31304" lon="5.1008">
        <ele>230.37</ele>
        <time>2015-09-03T14:35:11Z</time>
      </trkpt>
      <trkpt lat="47.31298" lon="5.10108">
        <ele>226.53</ele>
        <time>2015-09-03T14:35:27Z</time>
      </trkpt>
      <trkpt lat="47.31291" lon="5.10146">
        <ele>228.45</ele>
        <time>2015-09-03T14:35:46Z</time>
      </trkpt>
      <trkpt lat="47.3129" lon="5.10158">
        <ele>231.81</ele>
        <time>2015-09-03T14:36:04Z</time>
      </trkpt>
      <trkpt lat="47.3129" lon="5.10158">
        <ele>232.78</ele>
        <time>2015-09-03T14:36:28Z</time>
      </trkpt>
      <trkpt lat="47.31282" lon="5.10151">
        <ele>231.33</ele>
        <time>2015-09-03T14:36:36Z</time>
      </trkpt>
      <trkpt lat="47.31281" lon="5.10141">
        <ele>229.89</ele>
        <time>2015-09-03T14:36:45Z</time>
      </trkpt>
      <trkpt lat="47.31275" lon="5.10134">
        <ele>229.41</ele>
        <time>2015-09-03T14:37:00Z</time>
      </trkpt>
      <trkpt lat="47.31274" lon="5.10134">
        <ele>229.41</ele>
        <time>2015-09-03T14:37:22Z</time>
      </trkpt>
      <trkpt lat="47.31268" lon="5.10129">
        <ele>229.89</ele>
        <time>2015-09-03T14:37:37Z</time>
      </trkpt>
      <trkpt lat="47.31268" lon="5.10126">
        <ele>230.85</ele>
        <time>2015-09-03T14:37:50Z</time>
      </trkpt>
      <trkpt lat="47.31264" lon="5.10125">
        <ele>232.78</ele>
        <time>2015-09-03T14:38:07Z</time>
      </trkpt>
      <trkpt lat="47.31258" lon="5.10123">
        <ele>232.78</ele>
        <time>2015-09-03T14:38:12Z</time>
      </trkpt>
      <trkpt lat="47.31255" lon="5.10116">
        <ele>232.3</ele>
        <time>2015-09-03T14:38:16Z</time>
      </trkpt>
      <trkpt lat="47.31254" lon="5.10105">
        <ele>231.33</ele>
        <time>2015-09-03T14:38:21Z</time>
      </trkpt>
      <trkpt lat="47.31254" lon="5.101">
        <ele>230.85</ele>
        <time>2015-09-03T14:38:35Z</time>
      </trkpt>
      <trkpt lat="47.31256" lon="5.1008">
        <ele>230.85</ele>
        <time>2015-09-03T14:38:50Z</time>
      </trkpt>
      <trkpt lat="47.31255" lon="5.10039">
        <ele>235.66</ele>
        <time>2015-09-03T14:39:08Z</time>
      </trkpt>
      <trkpt lat="47.31267" lon="5.10012">
        <ele>234.22</ele>
        <time>2015-09-03T14:39:24Z</time>
      </trkpt>
      <trkpt lat="47.3127" lon="5.10001">
        <ele>234.22</ele>
        <time>2015-09-03T14:39:29Z</time>
      </trkpt>
      <trkpt lat="47.31273" lon="5.09958">
        <ele>231.81</ele>
        <time>2015-09-03T14:39:51Z</time>
      </trkpt>
      <trkpt lat="47.31281" lon="5.09922">
        <ele>230.37</ele>
        <time>2015-09-03T14:40:11Z</time>
      </trkpt>
      <trkpt lat="47.31295" lon="5.09876">
        <ele>229.41</ele>
        <time>2015-09-03T14:40:35Z</time>
      </trkpt>
      <trkpt lat="47.31298" lon="5.0983">
        <ele>228.93</ele>
        <time>2015-09-03T14:40:56Z</time>
      </trkpt>
      <trkpt lat="47.31305" lon="5.09788">
        <ele>230.85</ele>
        <time>2015-09-03T14:41:17Z</time>
      </trkpt>
      <trkpt lat="47.3131" lon="5.09772">
        <ele>233.74</ele>
        <time>2015-09-03T14:41:36Z</time>
      </trkpt>
      <trkpt lat="47.31311" lon="5.09766">
        <ele>237.58</ele>
        <time>2015-09-03T14:42:11Z</time>
      </trkpt>
      <trkpt lat="47.31312" lon="5.09751">
        <ele>236.62</ele>
        <time>2015-09-03T14:42:21Z</time>
      </trkpt>
      <trkpt lat="47.31307" lon="5.09732">
        <ele>232.3</ele>
        <time>2015-09-03T14:42:37Z</time>
      </trkpt>
      <trkpt lat="47.31309" lon="5.0972">
        <ele>230.37</ele>
        <time>2015-09-03T14:42:43Z</time>
      </trkpt>
      <trkpt lat="47.31312" lon="5.09694">
        <ele>230.85</ele>
        <time>2015-09-03T14:42:55Z</time>
      </trkpt>
      <trkpt lat="47.31312" lon="5.09681">
        <ele>231.81</ele>
        <time>2015-09-03T14:43:01Z</time>
      </trkpt>
      <trkpt lat="47.31317" lon="5.09641">
        <ele>232.78</ele>
        <time>2015-09-03T14:43:19Z</time>
      </trkpt>
      <trkpt lat="47.31322" lon="5.09597">
        <ele>230.85</ele>
        <time>2015-09-03T14:43:42Z</time>
      </trkpt>
      <trkpt lat="47.31321" lon="5.09562">
        <ele>232.78</ele>
        <time>2015-09-03T14:44:00Z</time>
      </trkpt>
      <trkpt lat="47.31325" lon="5.0952">
        <ele>233.26</ele>
        <time>2015-09-03T14:44:21Z</time>
      </trkpt>
      <trkpt lat="47.31326" lon="5.09476">
        <ele>233.74</ele>
        <time>2015-09-03T14:44:42Z</time>
      </trkpt>
      <trkpt lat="47.31328" lon="5.09441">
        <ele>232.3</ele>
        <time>2015-09-03T14:45:00Z</time>
      </trkpt>
      <trkpt lat="47.31331" lon="5.09415">
        <ele>230.37</ele>
        <time>2015-09-03T14:45:20Z</time>
      </trkpt>
      <trkpt lat="47.3133" lon="5.09411">
        <ele>229.41</ele>
        <time>2015-09-03T14:45:27Z</time>
      </trkpt>
      <trkpt lat="47.31304" lon="5.09404">
        <ele>224.61</ele>
        <time>2015-09-03T14:45:48Z</time>
      </trkpt>
      <trkpt lat="47.31279" lon="5.09398">
        <ele>226.53</ele>
        <time>2015-09-03T14:46:08Z</time>
      </trkpt>
      <trkpt lat="47.31252" lon="5.0939">
        <ele>231.81</ele>
        <time>2015-09-03T14:46:28Z</time>
      </trkpt>
      <trkpt lat="47.31233" lon="5.09389">
        <ele>231.81</ele>
        <time>2015-09-03T14:46:42Z</time>
      </trkpt>
      <trkpt lat="47.31209" lon="5.0939">
        <ele>231.33</ele>
        <time>2015-09-03T14:46:59Z</time>
      </trkpt>
      <trkpt lat="47.31187" lon="5.0939">
        <ele>231.33</ele>
        <time>2015-09-03T14:47:17Z</time>
      </trkpt>
      <trkpt lat="47.31163" lon="5.09388">
        <ele>229.41</ele>
        <time>2015-09-03T14:47:34Z</time>
      </trkpt>
      <trkpt lat="47.31141" lon="5.09383">
        <ele>229.89</ele>
        <time>2015-09-03T14:47:52Z</time>
      </trkpt>
      <trkpt lat="47.31119" lon="5.09384">
        <ele>228.93</ele>
        <time>2015-09-03T14:48:10Z</time>
      </trkpt>
      <trkpt lat="47.31109" lon="5.09388">
        <ele>227.97</ele>
        <time>2015-09-03T14:48:17Z</time>
      </trkpt>
      <trkpt lat="47.31087" lon="5.09402">
        <ele>228.93</ele>
        <time>2015-09-03T14:48:37Z</time>
      </trkpt>
      <trkpt lat="47.31061" lon="5.09416">
        <ele>230.37</ele>
        <time>2015-09-03T14:48:56Z</time>
      </trkpt>
      <trkpt lat="47.31043" lon="5.09439">
        <ele>229.41</ele>
        <time>2015-09-03T14:49:14Z</time>
      </trkpt>
      <trkpt lat="47.31039" lon="5.09444">
        <ele>231.33</ele>
        <time>2015-09-03T14:49:29Z</time>
      </trkpt>
      <trkpt lat="47.31039" lon="5.09444">
        <ele>231.81</ele>
        <time>2015-09-03T14:49:31Z</time>
      </trkpt>
      <trkpt lat="47.31017" lon="5.09444">
        <ele>230.85</ele>
        <time>2015-09-03T14:49:46Z</time>
      </trkpt>
      <trkpt lat="47.31003" lon="5.09442">
        <ele>228.93</ele>
        <time>2015-09-03T14:50:01Z</time>
      </trkpt>
      <trkpt lat="47.30996" lon="5.09429">
        <ele>228.45</ele>
        <time>2015-09-03T14:50:11Z</time>
      </trkpt>
      <trkpt lat="47.30993" lon="5.09428">
        <ele>228.45</ele>
        <time>2015-09-03T14:50:13Z</time>
      </trkpt>
      <trkpt lat="47.30988" lon="5.09433">
        <ele>228.93</ele>
        <time>2015-09-03T14:50:18Z</time>
      </trkpt>
      <trkpt lat="47.30968" lon="5.09453">
        <ele>229.41</ele>
        <time>2015-09-03T14:50:36Z</time>
      </trkpt>
      <trkpt lat="47.30943" lon="5.0948">
        <ele>228.93</ele>
        <time>2015-09-03T14:50:58Z</time>
      </trkpt>
      <trkpt lat="47.30919" lon="5.09495">
        <ele>227.49</ele>
        <time>2015-09-03T14:51:17Z</time>
      </trkpt>
      <trkpt lat="47.309" lon="5.095">
        <ele>228.45</ele>
        <time>2015-09-03T14:51:32Z</time>
      </trkpt>
      <trkpt lat="47.30879" lon="5.09521">
        <ele>231.33</ele>
        <time>2015-09-03T14:51:50Z</time>
      </trkpt>
      <trkpt lat="47.3085" lon="5.09541">
        <ele>231.33</ele>
        <time>2015-09-03T14:52:14Z</time>
      </trkpt>
      <trkpt lat="47.30828" lon="5.09565">
        <ele>228.45</ele>
        <time>2015-09-03T14:52:34Z</time>
      </trkpt>
      <trkpt lat="47.30805" lon="5.09595">
        <ele>227.97</ele>
        <time>2015-09-03T14:52:55Z</time>
      </trkpt>
      <trkpt lat="47.30788" lon="5.09631">
        <ele>227.01</ele>
        <time>2015-09-03T14:53:16Z</time>
      </trkpt>
      <trkpt lat="47.30767" lon="5.09652">
        <ele>225.57</ele>
        <time>2015-09-03T14:53:34Z</time>
      </trkpt>
      <trkpt lat="47.30746" lon="5.09673">
        <ele>226.53</ele>
        <time>2015-09-03T14:53:52Z</time>
      </trkpt>
      <trkpt lat="47.30734" lon="5.09684">
        <ele>227.01</ele>
        <time>2015-09-03T14:54:03Z</time>
      </trkpt>
      <trkpt lat="47.30737" lon="5.09696">
        <ele>227.97</ele>
        <time>2015-09-03T14:54:19Z</time>
      </trkpt>
      <trkpt lat="47.3074" lon="5.09701">
        <ele>227.97</ele>
        <time>2015-09-03T14:54:23Z</time>
      </trkpt>
      <trkpt lat="47.30735" lon="5.09735">
        <ele>227.01</ele>
        <time>2015-09-03T14:54:43Z</time>
      </trkpt>
      <trkpt lat="47.3073" lon="5.09753">
        <ele>227.01</ele>
        <time>2015-09-03T14:54:55Z</time>
      </trkpt>
      <trkpt lat="47.30719" lon="5.09761">
        <ele>228.45</ele>
        <time>2015-09-03T14:55:07Z</time>
      </trkpt>
      <trkpt lat="47.30694" lon="5.09754">
        <ele>226.05</ele>
        <time>2015-09-03T14:55:25Z</time>
      </trkpt>
      <trkpt lat="47.30689" lon="5.09754">
        <ele>225.09</ele>
        <time>2015-09-03T14:55:29Z</time>
      </trkpt>
      <trkpt lat="47.30667" lon="5.09776">
        <ele>226.53</ele>
        <time>2015-09-03T14:55:47Z</time>
      </trkpt>
      <trkpt lat="47.30641" lon="5.09799">
        <ele>226.05</ele>
        <time>2015-09-03T14:56:09Z</time>
      </trkpt>
      <trkpt lat="47.30619" lon="5.0982">
        <ele>228.93</ele>
        <time>2015-09-03T14:56:28Z</time>
      </trkpt>
      <trkpt lat="47.30597" lon="5.09845">
        <ele>230.37</ele>
        <time>2015-09-03T14:56:47Z</time>
      </trkpt>
      <trkpt lat="47.30574" lon="5.09866">
        <ele>230.85</ele>
        <time>2015-09-03T14:57:07Z</time>
      </trkpt>
      <trkpt lat="47.3056" lon="5.09885">
        <ele>229.41</ele>
        <time>2015-09-03T14:57:23Z</time>
      </trkpt>
      <trkpt lat="47.30555" lon="5.09894">
        <ele>230.37</ele>
        <time>2015-09-03T14:57:37Z</time>
      </trkpt>
      <trkpt lat="47.30555" lon="5.09893">
        <ele>231.81</ele>
        <time>2015-09-03T14:58:10Z</time>
      </trkpt>
      <trkpt lat="47.30556" lon="5.09895">
        <ele>231.33</ele>
        <time>2015-09-03T14:58:39Z</time>
      </trkpt>
      <trkpt lat="47.30555" lon="5.09902">
        <ele>229.89</ele>
        <time>2015-09-03T14:58:44Z</time>
      </trkpt>
      <trkpt lat="47.30549" lon="5.09951">
        <ele>224.61</ele>
        <time>2015-09-03T14:59:07Z</time>
      </trkpt>
      <trkpt lat="47.30544" lon="5.09986">
        <ele>224.12</ele>
        <time>2015-09-03T14:59:26Z</time>
      </trkpt>
      <trkpt lat="47.3054" lon="5.10018">
        <ele>223.64</ele>
        <time>2015-09-03T14:59:43Z</time>
      </trkpt>
      <trkpt lat="47.30535" lon="5.10048">
        <ele>222.68</ele>
        <time>2015-09-03T14:59:59Z</time>
      </trkpt>
      <trkpt lat="47.30535" lon="5.10057">
        <ele>223.16</ele>
        <time>2015-09-03T15:00:04Z</time>
      </trkpt>
      <trkpt lat="47.30533" lon="5.10062">
        <ele>223.16</ele>
        <time>2015-09-03T15:00:07Z</time>
      </trkpt>
      <trkpt lat="47.30525" lon="5.10091">
        <ele>224.61</ele>
        <time>2015-09-03T15:00:23Z</time>
      </trkpt>
      <trkpt lat="47.30523" lon="5.10098">
        <ele>224.61</ele>
        <time>2015-09-03T15:00:38Z</time>
      </trkpt>
      <trkpt lat="47.30522" lon="5.10098">
        <ele>223.64</ele>
        <time>2015-09-03T15:01:00Z</time>
      </trkpt>
      <trkpt lat="47.30521" lon="5.10102">
        <ele>223.64</ele>
        <time>2015-09-03T15:01:10Z</time>
      </trkpt>
      <trkpt lat="47.30513" lon="5.10136">
        <ele>223.16</ele>
        <time>2015-09-03T15:01:28Z</time>
      </trkpt>
      <trkpt lat="47.30509" lon="5.10169">
        <ele>222.68</ele>
        <time>2015-09-03T15:01:44Z</time>
      </trkpt>
      <trkpt lat="47.30509" lon="5.10203">
        <ele>222.2</ele>
        <time>2015-09-03T15:02:03Z</time>
      </trkpt>
      <trkpt lat="47.30511" lon="5.10207">
        <ele>223.64</ele>
        <time>2015-09-03T15:02:13Z</time>
      </trkpt>
      <trkpt lat="47.30516" lon="5.10211">
        <ele>222.2</ele>
        <time>2015-09-03T15:02:18Z</time>
      </trkpt>
      <trkpt lat="47.30518" lon="5.10215">
        <ele>220.76</ele>
        <time>2015-09-03T15:02:21Z</time>
      </trkpt>
      <trkpt lat="47.30514" lon="5.1025">
        <ele>221.24</ele>
        <time>2015-09-03T15:02:38Z</time>
      </trkpt>
      <trkpt lat="47.30512" lon="5.10261">
        <ele>221.24</ele>
        <time>2015-09-03T15:02:44Z</time>
      </trkpt>
      <trkpt lat="47.30513" lon="5.10268">
        <ele>221.24</ele>
        <time>2015-09-03T15:02:48Z</time>
      </trkpt>
      <trkpt lat="47.30515" lon="5.10298">
        <ele>220.28</ele>
        <time>2015-09-03T15:03:05Z</time>
      </trkpt>
      <trkpt lat="47.30515" lon="5.10311">
        <ele>220.28</ele>
        <time>2015-09-03T15:03:13Z</time>
      </trkpt>
      <trkpt lat="47.30516" lon="5.10322">
        <ele>220.28</ele>
        <time>2015-09-03T15:03:20Z</time>
      </trkpt>
      <trkpt lat="47.3052" lon="5.10342">
        <ele>220.28</ele>
        <time>2015-09-03T15:03:35Z</time>
      </trkpt>
      <trkpt lat="47.30523" lon="5.10363">
        <ele>220.28</ele>
        <time>2015-09-03T15:03:49Z</time>
      </trkpt>
      <trkpt lat="47.30524" lon="5.10376">
        <ele>219.32</ele>
        <time>2015-09-03T15:04:01Z</time>
      </trkpt>
      <trkpt lat="47.30526" lon="5.10388">
        <ele>215.47</ele>
        <time>2015-09-03T15:04:10Z</time>
      </trkpt>
      <trkpt lat="47.30528" lon="5.10402">
        <ele>215.47</ele>
        <time>2015-09-03T15:04:18Z</time>
      </trkpt>
      <trkpt lat="47.30531" lon="5.10433">
        <ele>219.32</ele>
        <time>2015-09-03T15:04:33Z</time>
      </trkpt>
      <trkpt lat="47.30532" lon="5.10455">
        <ele>218.84</ele>
        <time>2015-09-03T15:04:45Z</time>
      </trkpt>
      <trkpt lat="47.30536" lon="5.10468">
        <ele>218.36</ele>
        <time>2015-09-03T15:04:52Z</time>
      </trkpt>
      <trkpt lat="47.30546" lon="5.10493">
        <ele>222.2</ele>
        <time>2015-09-03T15:05:06Z</time>
      </trkpt>
      <trkpt lat="47.30553" lon="5.10517">
        <ele>223.16</ele>
        <time>2015-09-03T15:05:21Z</time>
      </trkpt>
      <trkpt lat="47.30553" lon="5.10531">
        <ele>224.61</ele>
        <time>2015-09-03T15:05:35Z</time>
      </trkpt>
      <trkpt lat="47.30554" lon="5.10545">
        <ele>227.01</ele>
        <time>2015-09-03T15:05:43Z</time>
      </trkpt>
      <trkpt lat="47.30557" lon="5.10564">
        <ele>229.41</ele>
        <time>2015-09-03T15:05:55Z</time>
      </trkpt>
      <trkpt lat="47.30562" lon="5.10586">
        <ele>227.01</ele>
        <time>2015-09-03T15:06:08Z</time>
      </trkpt>
      <trkpt lat="47.30564" lon="5.10613">
        <ele>225.57</ele>
        <time>2015-09-03T15:06:23Z</time>
      </trkpt>
      <trkpt lat="47.30564" lon="5.10649">
        <ele>223.16</ele>
        <time>2015-09-03T15:06:42Z</time>
      </trkpt>
      <trkpt lat="47.30563" lon="5.10677">
        <ele>220.76</ele>
        <time>2015-09-03T15:06:57Z</time>
      </trkpt>
      <trkpt lat="47.30562" lon="5.1069">
        <ele>220.76</ele>
        <time>2015-09-03T15:07:13Z</time>
      </trkpt>
      <trkpt lat="47.30562" lon="5.10691">
        <ele>220.28</ele>
        <time>2015-09-03T15:07:32Z</time>
      </trkpt>
      <trkpt lat="47.30559" lon="5.10689">
        <ele>218.84</ele>
        <time>2015-09-03T15:07:50Z</time>
      </trkpt>
      <trkpt lat="47.30558" lon="5.1069">
        <ele>218.36</ele>
        <time>2015-09-03T15:08:03Z</time>
      </trkpt>
      <trkpt lat="47.3056" lon="5.10717">
        <ele>216.43</ele>
        <time>2015-09-03T15:08:20Z</time>
      </trkpt>
      <trkpt lat="47.30569" lon="5.10744">
        <ele>215.47</ele>
        <time>2015-09-03T15:08:36Z</time>
      </trkpt>
      <trkpt lat="47.30578" lon="5.1077">
        <ele>215.47</ele>
        <time>2015-09-03T15:08:52Z</time>
      </trkpt>
      <trkpt lat="47.30585" lon="5.10789">
        <ele>215.95</ele>
        <time>2015-09-03T15:09:06Z</time>
      </trkpt>
      <trkpt lat="47.30591" lon="5.10793">
        <ele>216.91</ele>
        <time>2015-09-03T15:09:15Z</time>
      </trkpt>
      <trkpt lat="47.30589" lon="5.10797">
        <ele>217.4</ele>
        <time>2015-09-03T15:09:21Z</time>
      </trkpt>
      <trkpt lat="47.30593" lon="5.1083">
        <ele>217.4</ele>
        <time>2015-09-03T15:09:39Z</time>
      </trkpt>
      <trkpt lat="47.3059" lon="5.10833">
        <ele>216.43</ele>
        <time>2015-09-03T15:09:43Z</time>
      </trkpt>
      <trkpt lat="47.30583" lon="5.10838">
        <ele>216.43</ele>
        <time>2015-09-03T15:09:51Z</time>
      </trkpt>
      <trkpt lat="47.30582" lon="5.10841">
        <ele>217.4</ele>
        <time>2015-09-03T15:09:53Z</time>
      </trkpt>
      <trkpt lat="47.30583" lon="5.10847">
        <ele>218.84</ele>
        <time>2015-09-03T15:09:57Z</time>
      </trkpt>
      <trkpt lat="47.30583" lon="5.10851">
        <ele>219.32</ele>
        <time>2015-09-03T15:10:00Z</time>
      </trkpt>
      <trkpt lat="47.30592" lon="5.10873">
        <ele>217.88</ele>
        <time>2015-09-03T15:10:15Z</time>
      </trkpt>
      <trkpt lat="47.30602" lon="5.109">
        <ele>217.88</ele>
        <time>2015-09-03T15:10:34Z</time>
      </trkpt>
      <trkpt lat="47.30603" lon="5.10902">
        <ele>218.84</ele>
        <time>2015-09-03T15:10:52Z</time>
      </trkpt>
      <trkpt lat="47.30605" lon="5.10906">
        <ele>216.43</ele>
        <time>2015-09-03T15:11:13Z</time>
      </trkpt>
      <trkpt lat="47.3061" lon="5.10911">
        <ele>216.91</ele>
        <time>2015-09-03T15:11:29Z</time>
      </trkpt>
      <trkpt lat="47.30613" lon="5.10915">
        <ele>216.43</ele>
        <time>2015-09-03T15:11:44Z</time>
      </trkpt>
      <trkpt lat="47.30622" lon="5.10927">
        <ele>217.88</ele>
        <time>2015-09-03T15:12:03Z</time>
      </trkpt>
      <trkpt lat="47.30643" lon="5.10954">
        <ele>217.4</ele>
        <time>2015-09-03T15:12:24Z</time>
      </trkpt>
      <trkpt lat="47.30658" lon="5.10979">
        <ele>218.36</ele>
        <time>2015-09-03T15:12:41Z</time>
      </trkpt>
      <trkpt lat="47.30675" lon="5.11006">
        <ele>216.91</ele>
        <time>2015-09-03T15:13:02Z</time>
      </trkpt>
      <trkpt lat="47.30692" lon="5.11025">
        <ele>215.95</ele>
        <time>2015-09-03T15:13:20Z</time>
      </trkpt>
      <trkpt lat="47.30711" lon="5.11046">
        <ele>217.4</ele>
        <time>2015-09-03T15:13:40Z</time>
      </trkpt>
      <trkpt lat="47.30721" lon="5.11085">
        <ele>217.4</ele>
        <time>2015-09-03T15:14:01Z</time>
      </trkpt>
      <trkpt lat="47.30732" lon="5.11119">
        <ele>217.88</ele>
        <time>2015-09-03T15:14:20Z</time>
      </trkpt>
      <trkpt lat="47.3074" lon="5.1114">
        <ele>218.84</ele>
        <time>2015-09-03T15:14:33Z</time>
      </trkpt>
      <trkpt lat="47.30732" lon="5.11152">
        <ele>217.4</ele>
        <time>2015-09-03T15:14:47Z</time>
      </trkpt>
      <trkpt lat="47.30732" lon="5.11152">
        <ele>217.88</ele>
        <time>2015-09-03T15:14:50Z</time>
      </trkpt>
      <trkpt lat="47.30746" lon="5.11153">
        <ele>215.47</ele>
        <time>2015-09-03T15:15:05Z</time>
      </trkpt>
      <trkpt lat="47.30747" lon="5.11153">
        <ele>214.51</ele>
        <time>2015-09-03T15:15:27Z</time>
      </trkpt>
      <trkpt lat="47.30751" lon="5.11156">
        <ele>214.03</ele>
        <time>2015-09-03T15:15:46Z</time>
      </trkpt>
      <trkpt lat="47.30752" lon="5.11157">
        <ele>213.55</ele>
        <time>2015-09-03T15:15:47Z</time>
      </trkpt>
      <trkpt lat="47.30758" lon="5.11165">
        <ele>214.03</ele>
        <time>2015-09-03T15:16:03Z</time>
      </trkpt>
      <trkpt lat="47.3076" lon="5.11166">
        <ele>215.95</ele>
        <time>2015-09-03T15:16:18Z</time>
      </trkpt>
      <trkpt lat="47.30768" lon="5.11186">
        <ele>215.47</ele>
        <time>2015-09-03T15:16:32Z</time>
      </trkpt>
      <trkpt lat="47.30762" lon="5.11218">
        <ele>209.22</ele>
        <time>2015-09-03T15:16:50Z</time>
      </trkpt>
      <trkpt lat="47.30761" lon="5.11251">
        <ele>204.42</ele>
        <time>2015-09-03T15:17:07Z</time>
      </trkpt>
      <trkpt lat="47.30761" lon="5.11283">
        <ele>204.42</ele>
        <time>2015-09-03T15:17:25Z</time>
      </trkpt>
      <trkpt lat="47.30761" lon="5.11324">
        <ele>205.86</ele>
        <time>2015-09-03T15:17:45Z</time>
      </trkpt>
      <trkpt lat="47.30761" lon="5.11364">
        <ele>206.82</ele>
        <time>2015-09-03T15:18:05Z</time>
      </trkpt>
      <trkpt lat="47.30761" lon="5.11413">
        <ele>209.22</ele>
        <time>2015-09-03T15:18:29Z</time>
      </trkpt>
      <trkpt lat="47.3076" lon="5.11455">
        <ele>212.59</ele>
        <time>2015-09-03T15:18:49Z</time>
      </trkpt>
      <trkpt lat="47.30761" lon="5.11464">
        <ele>211.63</ele>
        <time>2015-09-03T15:18:55Z</time>
      </trkpt>
      <trkpt lat="47.30764" lon="5.11496">
        <ele>211.63</ele>
        <time>2015-09-03T15:19:11Z</time>
      </trkpt>
      <trkpt lat="47.3077" lon="5.11529">
        <ele>212.59</ele>
        <time>2015-09-03T15:19:28Z</time>
      </trkpt>
      <trkpt lat="47.30781" lon="5.11569">
        <ele>216.43</ele>
        <time>2015-09-03T15:19:49Z</time>
      </trkpt>
      <trkpt lat="47.30791" lon="5.116">
        <ele>216.43</ele>
        <time>2015-09-03T15:20:10Z</time>
      </trkpt>
      <trkpt lat="47.30796" lon="5.1163">
        <ele>218.36</ele>
        <time>2015-09-03T15:20:30Z</time>
      </trkpt>
      <trkpt lat="47.30796" lon="5.11626">
        <ele>218.36</ele>
        <time>2015-09-03T15:20:37Z</time>
      </trkpt>
      <trkpt lat="47.30813" lon="5.11624">
        <ele>216.43</ele>
        <time>2015-09-03T15:20:51Z</time>
      </trkpt>
      <trkpt lat="47.30815" lon="5.11624">
        <ele>215.95</ele>
        <time>2015-09-03T15:20:53Z</time>
      </trkpt>
      <trkpt lat="47.30832" lon="5.1164">
        <ele>216.43</ele>
        <time>2015-09-03T15:21:09Z</time>
      </trkpt>
      <trkpt lat="47.30837" lon="5.11657">
        <ele>216.43</ele>
        <time>2015-09-03T15:21:20Z</time>
      </trkpt>
      <trkpt lat="47.30855" lon="5.11652">
        <ele>215.95</ele>
        <time>2015-09-03T15:21:35Z</time>
      </trkpt>
      <trkpt lat="47.30859" lon="5.11648">
        <ele>215.95</ele>
        <time>2015-09-03T15:21:39Z</time>
      </trkpt>
      <trkpt lat="47.30869" lon="5.11641">
        <ele>214.51</ele>
        <time>2015-09-03T15:21:48Z</time>
      </trkpt>
      <trkpt lat="47.30885" lon="5.11634">
        <ele>214.51</ele>
        <time>2015-09-03T15:22:01Z</time>
      </trkpt>
      <trkpt lat="47.30894" lon="5.11631">
        <ele>214.51</ele>
        <time>2015-09-03T15:22:15Z</time>
      </trkpt>
      <trkpt lat="47.30909" lon="5.11621">
        <ele>214.51</ele>
        <time>2015-09-03T15:22:28Z</time>
      </trkpt>
      <trkpt lat="47.30919" lon="5.11615">
        <ele>213.07</ele>
        <time>2015-09-03T15:22:42Z</time>
      </trkpt>
      <trkpt lat="47.30938" lon="5.11602">
        <ele>212.59</ele>
        <time>2015-09-03T15:22:58Z</time>
      </trkpt>
      <trkpt lat="47.30958" lon="5.11594">
        <ele>212.11</ele>
        <time>2015-09-03T15:23:14Z</time>
      </trkpt>
      <trkpt lat="47.30972" lon="5.11605">
        <ele>208.74</ele>
        <time>2015-09-03T15:23:28Z</time>
      </trkpt>
      <trkpt lat="47.30982" lon="5.11619">
        <ele>205.86</ele>
        <time>2015-09-03T15:23:38Z</time>
      </trkpt>
      <trkpt lat="47.30994" lon="5.11641">
        <ele>200.57</ele>
        <time>2015-09-03T15:23:55Z</time>
      </trkpt>
      <trkpt lat="47.3101" lon="5.11673">
        <ele>197.21</ele>
        <time>2015-09-03T15:24:16Z</time>
      </trkpt>
      <trkpt lat="47.31023" lon="5.117">
        <ele>198.65</ele>
        <time>2015-09-03T15:24:31Z</time>
      </trkpt>
      <trkpt lat="47.3103" lon="5.11708">
        <ele>198.65</ele>
        <time>2015-09-03T15:24:38Z</time>
      </trkpt>
      <trkpt lat="47.31039" lon="5.11718">
        <ele>202.49</ele>
        <time>2015-09-03T15:24:54Z</time>
      </trkpt>
      <trkpt lat="47.3104" lon="5.11718">
        <ele>205.38</ele>
        <time>2015-09-03T15:25:13Z</time>
      </trkpt>
      <trkpt lat="47.3104" lon="5.11718">
        <ele>208.26</ele>
        <time>2015-09-03T15:25:27Z</time>
      </trkpt>
      <trkpt lat="47.3104" lon="5.11717">
        <ele>210.19</ele>
        <time>2015-09-03T15:25:40Z</time>
      </trkpt>
      <trkpt lat="47.3105" lon="5.11712">
        <ele>210.67</ele>
        <time>2015-09-03T15:25:56Z</time>
      </trkpt>
      <trkpt lat="47.31058" lon="5.11695">
        <ele>208.74</ele>
        <time>2015-09-03T15:26:11Z</time>
      </trkpt>
      <trkpt lat="47.31069" lon="5.11677">
        <ele>206.34</ele>
        <time>2015-09-03T15:26:26Z</time>
      </trkpt>
      <trkpt lat="47.3108" lon="5.11665">
        <ele>207.78</ele>
        <time>2015-09-03T15:26:41Z</time>
      </trkpt>
      <trkpt lat="47.31089" lon="5.11645">
        <ele>208.26</ele>
        <time>2015-09-03T15:26:55Z</time>
      </trkpt>
      <trkpt lat="47.31098" lon="5.11621">
        <ele>207.78</ele>
        <time>2015-09-03T15:27:11Z</time>
      </trkpt>
      <trkpt lat="47.31104" lon="5.11616">
        <ele>209.7</ele>
        <time>2015-09-03T15:27:17Z</time>
      </trkpt>
      <trkpt lat="47.31123" lon="5.11595">
        <ele>214.03</ele>
        <time>2015-09-03T15:27:36Z</time>
      </trkpt>
      <trkpt lat="47.31133" lon="5.1158">
        <ele>216.91</ele>
        <time>2015-09-03T15:27:48Z</time>
      </trkpt>
      <trkpt lat="47.31151" lon="5.11563">
        <ele>217.88</ele>
        <time>2015-09-03T15:28:07Z</time>
      </trkpt>
      <trkpt lat="47.31152" lon="5.11562">
        <ele>217.88</ele>
        <time>2015-09-03T15:28:08Z</time>
      </trkpt>
      <trkpt lat="47.31158" lon="5.11555">
        <ele>222.68</ele>
        <time>2015-09-03T15:28:19Z</time>
      </trkpt>
      <trkpt lat="47.31156" lon="5.11554">
        <ele>222.68</ele>
        <time>2015-09-03T15:28:40Z</time>
      </trkpt>
      <trkpt lat="47.31156" lon="5.11552">
        <ele>224.61</ele>
        <time>2015-09-03T15:29:16Z</time>
      </trkpt>
      <trkpt lat="47.31158" lon="5.1155">
        <ele>223.16</ele>
        <time>2015-09-03T15:29:53Z</time>
      </trkpt>
      <trkpt lat="47.31156" lon="5.11551">
        <ele>223.64</ele>
        <time>2015-09-03T15:30:24Z</time>
      </trkpt>
      <trkpt lat="47.31157" lon="5.11551">
        <ele>223.64</ele>
        <time>2015-09-03T15:30:39Z</time>
      </trkpt>
      <trkpt lat="47.3116" lon="5.1155">
        <ele>223.64</ele>
        <time>2015-09-03T15:30:54Z</time>
      </trkpt>
      <trkpt lat="47.31167" lon="5.11546">
        <ele>222.68</ele>
        <time>2015-09-03T15:30:58Z</time>
      </trkpt>
      <trkpt lat="47.31192" lon="5.11535">
        <ele>218.36</ele>
        <time>2015-09-03T15:31:14Z</time>
      </trkpt>
      <trkpt lat="47.31197" lon="5.11532">
        <ele>217.4</ele>
        <time>2015-09-03T15:31:18Z</time>
      </trkpt>
      <trkpt lat="47.31217" lon="5.11523">
        <ele>214.51</ele>
        <time>2015-09-03T15:31:35Z</time>
      </trkpt>
      <trkpt lat="47.31221" lon="5.11515">
        <ele>214.51</ele>
        <time>2015-09-03T15:31:48Z</time>
      </trkpt>
      <trkpt lat="47.31222" lon="5.11519">
        <ele>216.91</ele>
        <time>2015-09-03T15:32:16Z</time>
      </trkpt>
      <trkpt lat="47.31221" lon="5.11519">
        <ele>220.76</ele>
        <time>2015-09-03T15:32:48Z</time>
      </trkpt>
      <trkpt lat="47.31223" lon="5.11518">
        <ele>220.76</ele>
        <time>2015-09-03T15:33:07Z</time>
      </trkpt>
      <trkpt lat="47.31223" lon="5.11517">
        <ele>220.28</ele>
        <time>2015-09-03T15:33:15Z</time>
      </trkpt>
      <trkpt lat="47.31226" lon="5.11521">
        <ele>220.28</ele>
        <time>2015-09-03T15:33:32Z</time>
      </trkpt>
      <trkpt lat="47.31246" lon="5.11518">
        <ele>217.4</ele>
        <time>2015-09-03T15:33:47Z</time>
      </trkpt>
      <trkpt lat="47.31255" lon="5.11511">
        <ele>214.51</ele>
        <time>2015-09-03T15:33:59Z</time>
      </trkpt>
      <trkpt lat="47.31272" lon="5.11492">
        <ele>211.63</ele>
        <time>2015-09-03T15:34:16Z</time>
      </trkpt>
      <trkpt lat="47.31293" lon="5.1147">
        <ele>210.19</ele>
        <time>2015-09-03T15:34:34Z</time>
      </trkpt>
      <trkpt lat="47.31313" lon="5.11456">
        <ele>210.67</ele>
        <time>2015-09-03T15:34:50Z</time>
      </trkpt>
      <trkpt lat="47.3132" lon="5.11452">
        <ele>209.7</ele>
        <time>2015-09-03T15:34:56Z</time>
      </trkpt>
      <trkpt lat="47.3134" lon="5.1143">
        <ele>208.26</ele>
        <time>2015-09-03T15:35:13Z</time>
      </trkpt>
      <trkpt lat="47.31362" lon="5.1141">
        <ele>211.63</ele>
        <time>2015-09-03T15:35:31Z</time>
      </trkpt>
      <trkpt lat="47.31381" lon="5.1139">
        <ele>213.55</ele>
        <time>2015-09-03T15:35:51Z</time>
      </trkpt>
      <trkpt lat="47.3138" lon="5.1139">
        <ele>214.03</ele>
        <time>2015-09-03T15:35:58Z</time>
      </trkpt>
      <trkpt lat="47.31405" lon="5.11378">
        <ele>214.03</ele>
        <time>2015-09-03T15:36:18Z</time>
      </trkpt>
      <trkpt lat="47.31424" lon="5.11369">
        <ele>212.59</ele>
        <time>2015-09-03T15:36:34Z</time>
      </trkpt>
      <trkpt lat="47.31433" lon="5.11357">
        <ele>213.55</ele>
        <time>2015-09-03T15:36:46Z</time>
      </trkpt>
      <trkpt lat="47.31452" lon="5.11338">
        <ele>214.03</ele>
        <time>2015-09-03T15:37:04Z</time>
      </trkpt>
      <trkpt lat="47.31458" lon="5.11332">
        <ele>214.51</ele>
        <time>2015-09-03T15:37:19Z</time>
      </trkpt>
      <trkpt lat="47.31469" lon="5.11326">
        <ele>214.99</ele>
        <time>2015-09-03T15:37:30Z</time>
      </trkpt>
      <trkpt lat="47.31496" lon="5.1132">
        <ele>213.55</ele>
        <time>2015-09-03T15:37:50Z</time>
      </trkpt>
      <trkpt lat="47.31501" lon="5.11318">
        <ele>213.07</ele>
        <time>2015-09-03T15:37:54Z</time>
      </trkpt>
      <trkpt lat="47.31522" lon="5.11303">
        <ele>212.11</ele>
        <time>2015-09-03T15:38:11Z</time>
      </trkpt>
      <trkpt lat="47.31545" lon="5.11292">
        <ele>213.55</ele>
        <time>2015-09-03T15:38:30Z</time>
      </trkpt>
      <trkpt lat="47.31556" lon="5.11289">
        <ele>214.51</ele>
        <time>2015-09-03T15:38:41Z</time>
      </trkpt>
      <trkpt lat="47.31575" lon="5.11283">
        <ele>215.47</ele>
        <time>2015-09-03T15:38:58Z</time>
      </trkpt>
      <trkpt lat="47.31595" lon="5.11277">
        <ele>216.43</ele>
        <time>2015-09-03T15:39:15Z</time>
      </trkpt>
      <trkpt lat="47.31597" lon="5.11273">
        <ele>214.03</ele>
        <time>2015-09-03T15:39:23Z</time>
      </trkpt>
      <trkpt lat="47.31597" lon="5.11264">
        <ele>213.55</ele>
        <time>2015-09-03T15:39:29Z</time>
      </trkpt>
      <trkpt lat="47.31603" lon="5.1126">
        <ele>214.51</ele>
        <time>2015-09-03T15:39:41Z</time>
      </trkpt>
      <trkpt lat="47.3163" lon="5.11249">
        <ele>215.95</ele>
        <time>2015-09-03T15:40:01Z</time>
      </trkpt>
      <trkpt lat="47.31635" lon="5.11244">
        <ele>215.95</ele>
        <time>2015-09-03T15:40:06Z</time>
      </trkpt>
      <trkpt lat="47.31649" lon="5.11233">
        <ele>215.47</ele>
        <time>2015-09-03T15:40:18Z</time>
      </trkpt>
      <trkpt lat="47.31666" lon="5.11218">
        <ele>214.03</ele>
        <time>2015-09-03T15:40:33Z</time>
      </trkpt>
      <trkpt lat="47.31671" lon="5.1121">
        <ele>214.51</ele>
        <time>2015-09-03T15:40:41Z</time>
      </trkpt>
      <trkpt lat="47.31675" lon="5.11199">
        <ele>215.47</ele>
        <time>2015-09-03T15:40:48Z</time>
      </trkpt>
      <trkpt lat="47.31684" lon="5.11166">
        <ele>218.36</ele>
        <time>2015-09-03T15:41:05Z</time>
      </trkpt>
      <trkpt lat="47.31692" lon="5.11129">
        <ele>220.28</ele>
        <time>2015-09-03T15:41:23Z</time>
      </trkpt>
      <trkpt lat="47.31703" lon="5.11093">
        <ele>218.84</ele>
        <time>2015-09-03T15:41:43Z</time>
      </trkpt>
      <trkpt lat="47.31716" lon="5.11073">
        <ele>218.84</ele>
        <time>2015-09-03T15:42:00Z</time>
      </trkpt>
      <trkpt lat="47.31714" lon="5.11073">
        <ele>218.36</ele>
        <time>2015-09-03T15:42:18Z</time>
      </trkpt>
      <trkpt lat="47.31714" lon="5.11073">
        <ele>218.84</ele>
        <time>2015-09-03T15:42:19Z</time>
      </trkpt>
      <trkpt lat="47.31713" lon="5.11076">
        <ele>220.28</ele>
        <time>2015-09-03T15:42:32Z</time>
      </trkpt>
      <trkpt lat="47.31713" lon="5.11076">
        <ele>221.72</ele>
        <time>2015-09-03T15:42:54Z</time>
      </trkpt>
      <trkpt lat="47.31714" lon="5.11074">
        <ele>221.72</ele>
        <time>2015-09-03T15:43:09Z</time>
      </trkpt>
      <trkpt lat="47.31714" lon="5.11074">
        <ele>221.24</ele>
        <time>2015-09-03T15:43:19Z</time>
      </trkpt>
      <trkpt lat="47.31714" lon="5.11072">
        <ele>220.76</ele>
        <time>2015-09-03T15:43:29Z</time>
      </trkpt>
      <trkpt lat="47.31717" lon="5.11075">
        <ele>221.24</ele>
        <time>2015-09-03T15:43:43Z</time>
      </trkpt>
      <trkpt lat="47.31735" lon="5.11081">
        <ele>220.76</ele>
        <time>2015-09-03T15:43:59Z</time>
      </trkpt>
      <trkpt lat="47.31754" lon="5.11082">
        <ele>220.76</ele>
        <time>2015-09-03T15:44:13Z</time>
      </trkpt>
      <trkpt lat="47.31772" lon="5.11091">
        <ele>219.8</ele>
        <time>2015-09-03T15:44:27Z</time>
      </trkpt>
      <trkpt lat="47.31782" lon="5.11078">
        <ele>220.28</ele>
        <time>2015-09-03T15:44:37Z</time>
      </trkpt>
      <trkpt lat="47.31791" lon="5.1104">
        <ele>219.8</ele>
        <time>2015-09-03T15:44:57Z</time>
      </trkpt>
      <trkpt lat="47.31798" lon="5.11008">
        <ele>219.32</ele>
        <time>2015-09-03T15:45:14Z</time>
      </trkpt>
      <trkpt lat="47.31811" lon="5.1097">
        <ele>218.84</ele>
        <time>2015-09-03T15:45:34Z</time>
      </trkpt>
      <trkpt lat="47.31822" lon="5.1095">
        <ele>215.95</ele>
        <time>2015-09-03T15:45:48Z</time>
      </trkpt>
      <trkpt lat="47.31826" lon="5.10944">
        <ele>214.51</ele>
        <time>2015-09-03T15:45:53Z</time>
      </trkpt>
      <trkpt lat="47.31828" lon="5.10936">
        <ele>215.47</ele>
        <time>2015-09-03T15:45:58Z</time>
      </trkpt>
      <trkpt lat="47.3183" lon="5.1093">
        <ele>215.47</ele>
        <time>2015-09-03T15:46:01Z</time>
      </trkpt>
      <trkpt lat="47.31834" lon="5.10921">
        <ele>215.47</ele>
        <time>2015-09-03T15:46:06Z</time>
      </trkpt>
      <trkpt lat="47.31835" lon="5.10913">
        <ele>214.51</ele>
        <time>2015-09-03T15:46:10Z</time>
      </trkpt>
      <trkpt lat="47.31855" lon="5.10885">
        <ele>216.43</ele>
        <time>2015-09-03T15:46:29Z</time>
      </trkpt>
      <trkpt lat="47.31882" lon="5.10858">
        <ele>216.91</ele>
        <time>2015-09-03T15:46:51Z</time>
      </trkpt>
      <trkpt lat="47.31907" lon="5.10835">
        <ele>219.32</ele>
        <time>2015-09-03T15:47:12Z</time>
      </trkpt>
      <trkpt lat="47.31937" lon="5.10809">
        <ele>218.84</ele>
        <time>2015-09-03T15:47:37Z</time>
      </trkpt>
      <trkpt lat="47.3196" lon="5.10786">
        <ele>221.24</ele>
        <time>2015-09-03T15:47:57Z</time>
      </trkpt>
      <trkpt lat="47.31978" lon="5.10762">
        <ele>222.2</ele>
        <time>2015-09-03T15:48:15Z</time>
      </trkpt>
      <trkpt lat="47.31998" lon="5.10732">
        <ele>221.72</ele>
        <time>2015-09-03T15:48:36Z</time>
      </trkpt>
      <trkpt lat="47.32018" lon="5.10709">
        <ele>221.24</ele>
        <time>2015-09-03T15:48:55Z</time>
      </trkpt>
      <trkpt lat="47.32028" lon="5.10697">
        <ele>222.2</ele>
        <time>2015-09-03T15:49:06Z</time>
      </trkpt>
      <trkpt lat="47.32052" lon="5.10671">
        <ele>223.16</ele>
        <time>2015-09-03T15:49:28Z</time>
      </trkpt>
      <trkpt lat="47.32072" lon="5.10656">
        <ele>224.12</ele>
        <time>2015-09-03T15:49:46Z</time>
      </trkpt>
      <trkpt lat="47.32092" lon="5.10627">
        <ele>225.09</ele>
        <time>2015-09-03T15:50:06Z</time>
      </trkpt>
      <trkpt lat="47.321" lon="5.10612">
        <ele>226.53</ele>
        <time>2015-09-03T15:50:24Z</time>
      </trkpt>
      <trkpt lat="47.3211" lon="5.10604">
        <ele>227.01</ele>
        <time>2015-09-03T15:50:36Z</time>
      </trkpt>
      <trkpt lat="47.32132" lon="5.10591">
        <ele>228.45</ele>
        <time>2015-09-03T15:50:53Z</time>
      </trkpt>
      <trkpt lat="47.32155" lon="5.10564">
        <ele>231.81</ele>
        <time>2015-09-03T15:51:15Z</time>
      </trkpt>
      <trkpt lat="47.32172" lon="5.10548">
        <ele>232.78</ele>
        <time>2015-09-03T15:51:30Z</time>
      </trkpt>
      <trkpt lat="47.32197" lon="5.1052">
        <ele>234.22</ele>
        <time>2015-09-03T15:51:53Z</time>
      </trkpt>
      <trkpt lat="47.32203" lon="5.10512">
        <ele>234.7</ele>
        <time>2015-09-03T15:51:59Z</time>
      </trkpt>
      <trkpt lat="47.32215" lon="5.10485">
        <ele>234.22</ele>
        <time>2015-09-03T15:52:16Z</time>
      </trkpt>
      <trkpt lat="47.32236" lon="5.10464">
        <ele>234.22</ele>
        <time>2015-09-03T15:52:35Z</time>
      </trkpt>
      <trkpt lat="47.32254" lon="5.10437">
        <ele>235.66</ele>
        <time>2015-09-03T15:52:54Z</time>
      </trkpt>
      <trkpt lat="47.32267" lon="5.10408">
        <ele>234.22</ele>
        <time>2015-09-03T15:53:12Z</time>
      </trkpt>
      <trkpt lat="47.32279" lon="5.10371">
        <ele>236.62</ele>
        <time>2015-09-03T15:53:32Z</time>
      </trkpt>
      <trkpt lat="47.32283" lon="5.10359">
        <ele>236.14</ele>
        <time>2015-09-03T15:53:48Z</time>
      </trkpt>
      <trkpt lat="47.32281" lon="5.10351">
        <ele>234.7</ele>
        <time>2015-09-03T15:54:01Z</time>
      </trkpt>
      <trkpt lat="47.32264" lon="5.10337">
        <ele>231.81</ele>
        <time>2015-09-03T15:54:17Z</time>
      </trkpt>
      <trkpt lat="47.32258" lon="5.10315">
        <ele>227.97</ele>
        <time>2015-09-03T15:54:32Z</time>
      </trkpt>
      <trkpt lat="47.32259" lon="5.10291">
        <ele>228.45</ele>
        <time>2015-09-03T15:54:44Z</time>
      </trkpt>
      <trkpt lat="47.32266" lon="5.10262">
        <ele>229.89</ele>
        <time>2015-09-03T15:54:59Z</time>
      </trkpt>
      <trkpt lat="47.32272" lon="5.10243">
        <ele>228.93</ele>
        <time>2015-09-03T15:55:12Z</time>
      </trkpt>
      <trkpt lat="47.32267" lon="5.10235">
        <ele>229.41</ele>
        <time>2015-09-03T15:55:18Z</time>
      </trkpt>
      <trkpt lat="47.32251" lon="5.10222">
        <ele>229.89</ele>
        <time>2015-09-03T15:55:32Z</time>
      </trkpt>
      <trkpt lat="47.32245" lon="5.10216">
        <ele>230.85</ele>
        <time>2015-09-03T15:55:37Z</time>
      </trkpt>
      <trkpt lat="47.32236" lon="5.10202">
        <ele>229.41</ele>
        <time>2015-09-03T15:55:50Z</time>
      </trkpt>
      <trkpt lat="47.32212" lon="5.10182">
        <ele>229.89</ele>
        <time>2015-09-03T15:56:10Z</time>
      </trkpt>
      <trkpt lat="47.32191" lon="5.10149">
        <ele>230.37</ele>
        <time>2015-09-03T15:56:31Z</time>
      </trkpt>
      <trkpt lat="47.3218" lon="5.10135">
        <ele>230.37</ele>
        <time>2015-09-03T15:56:44Z</time>
      </trkpt>
      <trkpt lat="47.32178" lon="5.10132">
        <ele>230.85</ele>
        <time>2015-09-03T15:56:57Z</time>
      </trkpt>
      <trkpt lat="47.32179" lon="5.10123">
        <ele>228.93</ele>
        <time>2015-09-03T15:57:04Z</time>
      </trkpt>
      <trkpt lat="47.3217" lon="5.10104">
        <ele>226.53</ele>
        <time>2015-09-03T15:57:15Z</time>
      </trkpt>
      <trkpt lat="47.32144" lon="5.1009">
        <ele>227.97</ele>
        <time>2015-09-03T15:57:36Z</time>
      </trkpt>
      <trkpt lat="47.3214" lon="5.10089">
        <ele>228.93</ele>
        <time>2015-09-03T15:57:40Z</time>
      </trkpt>
      <trkpt lat="47.32122" lon="5.101">
        <ele>228.45</ele>
        <time>2015-09-03T15:57:56Z</time>
      </trkpt>
      <trkpt lat="47.3211" lon="5.10108">
        <ele>228.93</ele>
        <time>2015-09-03T15:58:09Z</time>
      </trkpt>
      <trkpt lat="47.32101" lon="5.10111">
        <ele>227.01</ele>
        <time>2015-09-03T15:58:22Z</time>
      </trkpt>
      <trkpt lat="47.3208" lon="5.10129">
        <ele>227.01</ele>
        <time>2015-09-03T15:58:40Z</time>
      </trkpt>
      <trkpt lat="47.32062" lon="5.10139">
        <ele>225.09</ele>
        <time>2015-09-03T15:58:55Z</time>
      </trkpt>
      <trkpt lat="47.32037" lon="5.10157">
        <ele>225.57</ele>
        <time>2015-09-03T15:59:14Z</time>
      </trkpt>
      <trkpt lat="47.32015" lon="5.1017">
        <ele>224.61</ele>
        <time>2015-09-03T15:59:31Z</time>
      </trkpt>
      <trkpt lat="47.31997" lon="5.10183">
        <ele>227.01</ele>
        <time>2015-09-03T15:59:46Z</time>
      </trkpt>
      <trkpt lat="47.31974" lon="5.10196">
        <ele>226.05</ele>
        <time>2015-09-03T16:00:05Z</time>
      </trkpt>
      <trkpt lat="47.31952" lon="5.10212">
        <ele>224.61</ele>
        <time>2015-09-03T16:00:23Z</time>
      </trkpt>
      <trkpt lat="47.3194" lon="5.10219">
        <ele>225.09</ele>
        <time>2015-09-03T16:00:38Z</time>
      </trkpt>
      <trkpt lat="47.31928" lon="5.10222">
        <ele>225.57</ele>
        <time>2015-09-03T16:00:51Z</time>
      </trkpt>
      <trkpt lat="47.31917" lon="5.10222">
        <ele>224.12</ele>
        <time>2015-09-03T16:01:04Z</time>
      </trkpt>
      <trkpt lat="47.31915" lon="5.10213">
        <ele>223.16</ele>
        <time>2015-09-03T16:01:10Z</time>
      </trkpt>
      <trkpt lat="47.31911" lon="5.10196">
        <ele>222.68</ele>
        <time>2015-09-03T16:01:18Z</time>
      </trkpt>
      <trkpt lat="47.31904" lon="5.1016">
        <ele>225.57</ele>
        <time>2015-09-03T16:01:36Z</time>
      </trkpt>
      <trkpt lat="47.319" lon="5.1013">
        <ele>227.49</ele>
        <time>2015-09-03T16:01:51Z</time>
      </trkpt>
      <trkpt lat="47.31896" lon="5.101">
        <ele>228.45</ele>
        <time>2015-09-03T16:02:06Z</time>
      </trkpt>
      <trkpt lat="47.31891" lon="5.10062">
        <ele>229.89</ele>
        <time>2015-09-03T16:02:25Z</time>
      </trkpt>
      <trkpt lat="47.31888" lon="5.10046">
        <ele>228.45</ele>
        <time>2015-09-03T16:02:34Z</time>
      </trkpt>
      <trkpt lat="47.31884" lon="5.10013">
        <ele>227.49</ele>
        <time>2015-09-03T16:02:51Z</time>
      </trkpt>
      <trkpt lat="47.31879" lon="5.09976">
        <ele>227.97</ele>
        <time>2015-09-03T16:03:10Z</time>
      </trkpt>
      <trkpt lat="47.31875" lon="5.09942">
        <ele>226.53</ele>
        <time>2015-09-03T16:03:26Z</time>
      </trkpt>
      <trkpt lat="47.31869" lon="5.09906">
        <ele>227.97</ele>
        <time>2015-09-03T16:03:44Z</time>
      </trkpt>
      <trkpt lat="47.31862" lon="5.09878">
        <ele>227.49</ele>
        <time>2015-09-03T16:03:59Z</time>
      </trkpt>
      <trkpt lat="47.31863" lon="5.09856">
        <ele>229.89</ele>
        <time>2015-09-03T16:04:14Z</time>
      </trkpt>
      <trkpt lat="47.31864" lon="5.09854">
        <ele>228.45</ele>
        <time>2015-09-03T16:04:51Z</time>
      </trkpt>
      <trkpt lat="47.31865" lon="5.09857">
        <ele>227.97</ele>
        <time>2015-09-03T16:05:25Z</time>
      </trkpt>
      <trkpt lat="47.31864" lon="5.09855">
        <ele>227.49</ele>
        <time>2015-09-03T16:05:40Z</time>
      </trkpt>
      <trkpt lat="47.31286" lon="5.10181">
        <ele>218.36</ele>
        <time>2015-09-03T16:17:21Z</time>
      </trkpt>
      <trkpt lat="47.31289" lon="5.10163">
        <ele>232.3</ele>
        <time>2015-09-03T16:17:46Z</time>
      </trkpt>
      <trkpt lat="47.3129" lon="5.10163">
        <ele>232.3</ele>
        <time>2015-09-03T16:18:18Z</time>
      </trkpt>
      <trkpt lat="47.31291" lon="5.10163">
        <ele>233.74</ele>
        <time>2015-09-03T16:18:26Z</time>
      </trkpt>
      <trkpt lat="47.3129" lon="5.10163">
        <ele>232.78</ele>
        <time>2015-09-03T16:19:02Z</time>
      </trkpt>
      <trkpt lat="47.31291" lon="5.10163">
        <ele>231.81</ele>
        <time>2015-09-03T16:19:43Z</time>
      </trkpt>
      <trkpt lat="47.31316" lon="5.10169">
        <ele>231.33</ele>
        <time>2015-09-03T16:20:02Z</time>
      </trkpt>
      <trkpt lat="47.3134" lon="5.10173">
        <ele>230.85</ele>
        <time>2015-09-03T16:20:21Z</time>
      </trkpt>
      <trkpt lat="47.31365" lon="5.10182">
        <ele>228.93</ele>
        <time>2015-09-03T16:20:41Z</time>
      </trkpt>
      <trkpt lat="47.31393" lon="5.10195">
        <ele>228.45</ele>
        <time>2015-09-03T16:21:04Z</time>
      </trkpt>
      <trkpt lat="47.31419" lon="5.10219">
        <ele>228.93</ele>
        <time>2015-09-03T16:21:26Z</time>
      </trkpt>
      <trkpt lat="47.31445" lon="5.10239">
        <ele>228.45</ele>
        <time>2015-09-03T16:21:48Z</time>
      </trkpt>
      <trkpt lat="47.31459" lon="5.10271">
        <ele>228.45</ele>
        <time>2015-09-03T16:22:08Z</time>
      </trkpt>
      <trkpt lat="47.31463" lon="5.10302">
        <ele>230.37</ele>
        <time>2015-09-03T16:22:24Z</time>
      </trkpt>
      <trkpt lat="47.31459" lon="5.10332">
        <ele>227.49</ele>
        <time>2015-09-03T16:22:42Z</time>
      </trkpt>
      <trkpt lat="47.31457" lon="5.10347">
        <ele>226.05</ele>
        <time>2015-09-03T16:22:52Z</time>
      </trkpt>
      <trkpt lat="47.31452" lon="5.10361">
        <ele>225.57</ele>
        <time>2015-09-03T16:23:01Z</time>
      </trkpt>
      <trkpt lat="47.31434" lon="5.10382">
        <ele>224.61</ele>
        <time>2015-09-03T16:23:18Z</time>
      </trkpt>
      <trkpt lat="47.3143" lon="5.10418">
        <ele>223.16</ele>
        <time>2015-09-03T16:23:36Z</time>
      </trkpt>
      <trkpt lat="47.31426" lon="5.10446">
        <ele>221.24</ele>
        <time>2015-09-03T16:23:50Z</time>
      </trkpt>
      <trkpt lat="47.31422" lon="5.10472">
        <ele>220.28</ele>
        <time>2015-09-03T16:24:03Z</time>
      </trkpt>
      <trkpt lat="47.31422" lon="5.10504">
        <ele>221.72</ele>
        <time>2015-09-03T16:24:19Z</time>
      </trkpt>
      <trkpt lat="47.3142" lon="5.10527">
        <ele>217.88</ele>
        <time>2015-09-03T16:24:35Z</time>
      </trkpt>
      <trkpt lat="47.3142" lon="5.10554">
        <ele>216.43</ele>
        <time>2015-09-03T16:24:50Z</time>
      </trkpt>
      <trkpt lat="47.31418" lon="5.10565">
        <ele>217.88</ele>
        <time>2015-09-03T16:24:59Z</time>
      </trkpt>
      <trkpt lat="47.31407" lon="5.10574">
        <ele>220.76</ele>
        <time>2015-09-03T16:25:08Z</time>
      </trkpt>
      <trkpt lat="47.31406" lon="5.10597">
        <ele>221.72</ele>
        <time>2015-09-03T16:25:19Z</time>
      </trkpt>
      <trkpt lat="47.31392" lon="5.10609">
        <ele>222.2</ele>
        <time>2015-09-03T16:25:34Z</time>
      </trkpt>
      <trkpt lat="47.31385" lon="5.10615">
        <ele>220.28</ele>
        <time>2015-09-03T16:25:41Z</time>
      </trkpt>
      <trkpt lat="47.31369" lon="5.10643">
        <ele>218.36</ele>
        <time>2015-09-03T16:26:00Z</time>
      </trkpt>
      <trkpt lat="47.31369" lon="5.10648">
        <ele>217.88</ele>
        <time>2015-09-03T16:26:02Z</time>
      </trkpt>
      <trkpt lat="47.31367" lon="5.10679">
        <ele>214.99</ele>
        <time>2015-09-03T16:26:19Z</time>
      </trkpt>
      <trkpt lat="47.31372" lon="5.10712">
        <ele>215.95</ele>
        <time>2015-09-03T16:26:36Z</time>
      </trkpt>
      <trkpt lat="47.31377" lon="5.10742">
        <ele>215.95</ele>
        <time>2015-09-03T16:26:52Z</time>
      </trkpt>
      <trkpt lat="47.31384" lon="5.10765">
        <ele>213.07</ele>
        <time>2015-09-03T16:27:08Z</time>
      </trkpt>
      <trkpt lat="47.31397" lon="5.1079">
        <ele>214.99</ele>
        <time>2015-09-03T16:27:26Z</time>
      </trkpt>
      <trkpt lat="47.31397" lon="5.10819">
        <ele>213.55</ele>
        <time>2015-09-03T16:27:40Z</time>
      </trkpt>
      <trkpt lat="47.31401" lon="5.10848">
        <ele>214.03</ele>
        <time>2015-09-03T16:27:56Z</time>
      </trkpt>
      <trkpt lat="47.31404" lon="5.1087">
        <ele>211.63</ele>
        <time>2015-09-03T16:28:09Z</time>
      </trkpt>
      <trkpt lat="47.31404" lon="5.10893">
        <ele>213.07</ele>
        <time>2015-09-03T16:28:24Z</time>
      </trkpt>
      <trkpt lat="47.31401" lon="5.10944">
        <ele>221.24</ele>
        <time>2015-09-03T16:28:41Z</time>
      </trkpt>
      <trkpt lat="47.31402" lon="5.10983">
        <ele>223.64</ele>
        <time>2015-09-03T16:28:58Z</time>
      </trkpt>
      <trkpt lat="47.31404" lon="5.10994">
        <ele>224.12</ele>
        <time>2015-09-03T16:29:03Z</time>
      </trkpt>
      <trkpt lat="47.31408" lon="5.11013">
        <ele>226.05</ele>
        <time>2015-09-03T16:29:16Z</time>
      </trkpt>
      <trkpt lat="47.31411" lon="5.1104">
        <ele>230.85</ele>
        <time>2015-09-03T16:29:31Z</time>
      </trkpt>
      <trkpt lat="47.31411" lon="5.11073">
        <ele>228.45</ele>
        <time>2015-09-03T16:29:46Z</time>
      </trkpt>
      <trkpt lat="47.31415" lon="5.11102">
        <ele>225.57</ele>
        <time>2015-09-03T16:30:01Z</time>
      </trkpt>
      <trkpt lat="47.31417" lon="5.11126">
        <ele>222.68</ele>
        <time>2015-09-03T16:30:15Z</time>
      </trkpt>
      <trkpt lat="47.31422" lon="5.11163">
        <ele>222.2</ele>
        <time>2015-09-03T16:30:32Z</time>
      </trkpt>
      <trkpt lat="47.31424" lon="5.11203">
        <ele>221.24</ele>
        <time>2015-09-03T16:30:53Z</time>
      </trkpt>
      <trkpt lat="47.31426" lon="5.11232">
        <ele>219.8</ele>
        <time>2015-09-03T16:31:09Z</time>
      </trkpt>
      <trkpt lat="47.31432" lon="5.11261">
        <ele>218.36</ele>
        <time>2015-09-03T16:31:26Z</time>
      </trkpt>
      <trkpt lat="47.31436" lon="5.11273">
        <ele>216.91</ele>
        <time>2015-09-03T16:31:34Z</time>
      </trkpt>
      <trkpt lat="47.31443" lon="5.11309">
        <ele>217.88</ele>
        <time>2015-09-03T16:31:53Z</time>
      </trkpt>
      <trkpt lat="47.31453" lon="5.1133">
        <ele>216.43</ele>
        <time>2015-09-03T16:32:09Z</time>
      </trkpt>
      <trkpt lat="47.31454" lon="5.1133">
        <ele>218.36</ele>
        <time>2015-09-03T16:32:36Z</time>
      </trkpt>
      <trkpt lat="47.31452" lon="5.11332">
        <ele>218.84</ele>
        <time>2015-09-03T16:33:12Z</time>
      </trkpt>
      <trkpt lat="47.31453" lon="5.1133">
        <ele>219.32</ele>
        <time>2015-09-03T16:33:41Z</time>
      </trkpt>
      <trkpt lat="47.31453" lon="5.1133">
        <ele>219.32</ele>
        <time>2015-09-03T16:34:07Z</time>
      </trkpt>
      <trkpt lat="47.31837" lon="5.09882">
        <ele>219.32</ele>
        <time>2015-09-04T11:49:43Z</time>
      </trkpt>
      <trkpt lat="47.31838" lon="5.0988">
        <ele>236.62</ele>
        <time>2015-09-04T11:50:17Z</time>
      </trkpt>
      <trkpt lat="47.31835" lon="5.09881">
        <ele>239.02</ele>
        <time>2015-09-04T11:50:59Z</time>
      </trkpt>
      <trkpt lat="47.31836" lon="5.09882">
        <ele>240.47</ele>
        <time>2015-09-04T11:51:40Z</time>
      </trkpt>
      <trkpt lat="47.31836" lon="5.0988">
        <ele>242.87</ele>
        <time>2015-09-04T11:52:13Z</time>
      </trkpt>
      <trkpt lat="47.31836" lon="5.0988">
        <ele>242.87</ele>
        <time>2015-09-04T11:52:42Z</time>
      </trkpt>
      <trkpt lat="47.31836" lon="5.0988">
        <ele>243.83</ele>
        <time>2015-09-04T11:53:14Z</time>
      </trkpt>
      <trkpt lat="47.31835" lon="5.0988">
        <ele>244.79</ele>
        <time>2015-09-04T11:53:51Z</time>
      </trkpt>
      <trkpt lat="47.31835" lon="5.0988">
        <ele>244.31</ele>
        <time>2015-09-04T11:54:30Z</time>
      </trkpt>
      <trkpt lat="47.31836" lon="5.0988">
        <ele>242.39</ele>
        <time>2015-09-04T11:55:11Z</time>
      </trkpt>
      <trkpt lat="47.31837" lon="5.0988">
        <ele>241.43</ele>
        <time>2015-09-04T11:55:46Z</time>
      </trkpt>
    </trkseg>
  </trk>
</gpx>